Time;durP1;ratioP1;P1;durP2;ratioP2;P2;SDS_P1;SDS_P2;PMS_P1;PMS_P2;Temp;Humidity;BMP_temperature;BMP_pressure;BME280_temperature;BME280_humidity;BME280_pressure;Samples;Min_cycle;Max_cycle;Signal;HPM_P1;HPM_P2
2021/07/05 00:02:26;;;;;;;;;;;14.80;99.90;;;;;;8326432;28;19959;-65
2021/07/05 00:06:27;;;;;;;;;;;14.90;99.90;;;;;;8357559;28;19908;-65
2021/07/05 00:10:28;;;;;;;;;;;14.90;99.90;;;;;;8358007;28;20294;-65
2021/07/05 00:14:28;;;;;;;;;;;15.00;99.90;;;;;;8340450;28;19982;-65
2021/07/05 00:18:29;;;;;;;;;;;15.00;99.90;;;;;;8357878;28;20152;-65
2021/07/05 00:22:29;;;;;;;;;;;15.10;99.90;;;;;;8354278;28;20035;-65
2021/07/05 00:26:30;;;;;;;;;;;15.10;99.90;;;;;;8323598;28;19932;-65
2021/07/05 00:30:31;;;;;;;;;;;15.10;99.90;;;;;;8324914;28;19905;-65
2021/07/05 00:34:31;;;;;;;;;;;15.10;99.90;;;;;;8348148;28;20057;-65
2021/07/05 00:38:32;;;;;;;;;;;15.10;99.90;;;;;;8362339;28;19958;-65
2021/07/05 00:42:32;;;;;;;;;;;15.20;99.90;;;;;;8330513;28;20290;-65
2021/07/05 00:46:33;;;;;;;;;;;15.10;99.90;;;;;;8330619;28;19959;-65
2021/07/05 00:50:34;;;;;;;;;;;15.20;99.90;;;;;;8330319;28;20310;-65
2021/07/05 00:54:35;;;;;;;;;;;15.20;99.90;;;;;;8330719;28;19905;-65
2021/07/05 00:58:35;;;;;;;;;;;15.30;99.90;;;;;;8330446;28;20371;-65
2021/07/05 01:02:36;;;;;;;;;;;15.20;99.90;;;;;;8331849;28;19904;-64
2021/07/05 01:06:36;;;;;;;;;;;15.10;99.90;;;;;;8363364;28;19909;-65
2021/07/05 01:10:37;;;;;;;;;;;15.00;99.90;;;;;;8363527;28;19904;-65
2021/07/05 01:14:38;;;;;;;;;;;15.00;99.90;;;;;;8361976;28;19905;-65
2021/07/05 01:18:38;;;;;;;;;;;15.10;99.90;;;;;;8362647;28;19905;-65
2021/07/05 01:22:39;;;;;;;;;;;15.20;99.90;;;;;;8357771;28;19909;-64
2021/07/05 01:26:39;;;;;;;;;;;15.30;99.90;;;;;;8312007;28;19913;-65
2021/07/05 01:30:40;;;;;;;;;;;15.20;99.90;;;;;;8329562;28;20278;-65
2021/07/05 01:34:41;;;;;;;;;;;15.10;99.90;;;;;;8347536;28;19912;-65
2021/07/05 01:38:42;;;;;;;;;;;15.00;99.90;;;;;;8362049;28;19915;-65
2021/07/05 01:42:54;;;;;;;;;;;15.00;99.90;;;;;;8361359;28;19931;-65
2021/07/05 01:46:54;;;;;;;;;;;15.00;99.90;;;;;;8344110;28;19913;-65
2021/07/05 01:50:55;;;;;;;;;;;14.90;99.90;;;;;;8361745;28;19935;-65
2021/07/05 01:54:55;;;;;;;;;;;14.70;99.90;;;;;;8337915;28;20268;-65
2021/07/05 01:58:55;;;;;;;;;;;14.90;99.90;;;;;;8328471;28;19905;-65
2021/07/05 02:02:56;;;;;;;;;;;15.10;99.90;;;;;;8332386;28;19905;-65
2021/07/05 02:06:56;;;;;;;;;;;14.90;99.90;;;;;;8361152;28;19916;-65
2021/07/05 02:10:57;;;;;;;;;;;15.00;99.90;;;;;;8359356;28;20520;-64
2021/07/05 02:14:57;;;;;;;;;;;15.10;99.90;;;;;;8361305;28;20054;-65
2021/07/05 02:18:58;;;;;;;;;;;15.20;99.90;;;;;;8360714;28;20437;-65
2021/07/05 02:22:59;;;;;;;;;;;15.10;99.90;;;;;;8353083;28;19909;-65
2021/07/05 02:27:00;;;;;;;;;;;15.10;99.90;;;;;;8327719;28;19916;-65
2021/07/05 02:31:01;;;;;;;;;;;15.20;99.90;;;;;;8327682;28;19999;-65
2021/07/05 02:35:02;;;;;;;;;;;14.90;99.90;;;;;;8348448;28;20339;-65
2021/07/05 02:39:04;;;;;;;;;;;14.90;99.90;;;;;;8359964;28;19912;-65
2021/07/05 02:43:05;;;;;;;;;;;14.80;99.90;;;;;;8360074;28;19904;-65
2021/07/05 02:47:05;;;;;;;;;;;14.80;99.90;;;;;;8360042;28;19909;-65
2021/07/05 02:51:06;;;;;;;;;;;14.80;99.90;;;;;;8359891;28;20374;-65
2021/07/05 02:55:09;;;;;;;;;;;14.70;99.90;;;;;;8333850;28;20023;-65
2021/07/05 02:59:09;;;;;;;;;;;14.70;99.90;;;;;;8326740;28;19913;-65
2021/07/05 03:03:10;;;;;;;;;;;14.60;99.90;;;;;;8332636;28;19931;-65
2021/07/05 03:07:10;;;;;;;;;;;14.70;99.90;;;;;;8341631;28;19999;-65
2021/07/05 03:11:12;;;;;;;;;;;14.50;99.90;;;;;;8359654;28;20298;-65
2021/07/05 03:15:14;;;;;;;;;;;14.60;99.90;;;;;;8359802;28;19912;-65
2021/07/05 03:19:14;;;;;;;;;;;14.40;99.90;;;;;;8359044;28;19959;-65
2021/07/05 03:23:16;;;;;;;;;;;14.30;99.90;;;;;;8349568;28;20461;-65
2021/07/05 03:27:16;;;;;;;;;;;14.20;99.90;;;;;;8326403;28;19970;-64
2021/07/05 03:31:17;;;;;;;;;;;14.00;99.90;;;;;;8326293;28;19991;-64
2021/07/05 03:35:18;;;;;;;;;;;14.10;99.90;;;;;;8313360;28;20047;-65
2021/07/05 03:39:18;;;;;;;;;;;14.10;99.90;;;;;;8325602;28;20326;-65
2021/07/05 03:43:19;;;;;;;;;;;14.00;99.90;;;;;;8325189;28;19913;-65
2021/07/05 03:47:20;;;;;;;;;;;14.10;99.90;;;;;;8325257;28;19913;-64
2021/07/05 03:51:20;;;;;;;;;;;14.40;99.90;;;;;;8325515;28;20369;-64
2021/07/05 03:55:23;;;;;;;;;;;14.30;99.90;;;;;;8325626;28;20287;-65
2021/07/05 03:59:23;;;;;;;;;;;14.30;99.90;;;;;;8323459;28;20298;-65
2021/07/05 04:03:24;;;;;;;;;;;14.30;99.90;;;;;;8324130;28;20318;-65
2021/07/05 04:07:24;;;;;;;;;;;14.50;99.90;;;;;;8327449;28;19920;-65
2021/07/05 04:11:25;;;;;;;;;;;14.60;99.90;;;;;;8331952;28;19909;-65
2021/07/05 04:15:26;;;;;;;;;;;14.60;99.90;;;;;;8313511;28;19912;-65
2021/07/05 04:19:26;;;;;;;;;;;14.80;99.90;;;;;;8330715;28;19959;-65
2021/07/05 04:23:27;;;;;;;;;;;14.90;99.90;;;;;;8331681;28;20351;-65
2021/07/05 04:27:27;;;;;;;;;;;14.90;99.90;;;;;;8331777;28;20429;-65
2021/07/05 04:31:28;;;;;;;;;;;15.00;99.90;;;;;;8331180;28;19948;-65
2021/07/05 04:35:28;;;;;;;;;;;15.10;99.90;;;;;;8330200;28;19909;-64
2021/07/05 04:39:29;;;;;;;;;;;15.80;99.90;;;;;;8330577;28;19916;-66
2021/07/05 04:43:29;;;;;;;;;;;16.10;99.90;;;;;;8330758;28;19912;-66
2021/07/05 04:47:30;;;;;;;;;;;16.20;99.90;;;;;;8329951;28;19913;-66
2021/07/05 04:51:30;;;;;;;;;;;16.60;99.90;;;;;;8329757;28;19943;-66
2021/07/05 04:55:31;;;;;;;;;;;16.70;99.90;;;;;;8316228;28;20517;-66
2021/07/05 04:59:32;;;;;;;;;;;16.90;99.90;;;;;;8328575;28;19916;-66
2021/07/05 05:03:32;;;;;;;;;;;16.90;99.90;;;;;;8338493;28;19959;-65
2021/07/05 05:07:33;;;;;;;;;;;16.90;99.90;;;;;;8362798;28;19916;-65
2021/07/05 05:11:34;;;;;;;;;;;17.10;99.90;;;;;;8340914;28;19909;-67
2021/07/05 05:15:34;;;;;;;;;;;17.30;99.90;;;;;;8329562;28;19912;-66
2021/07/05 05:19:34;;;;;;;;;;;17.70;99.90;;;;;;8328597;28;19915;-67
2021/07/05 05:23:35;;;;;;;;;;;17.90;99.90;;;;;;8329973;28;19905;-66
2021/07/05 05:27:36;;;;;;;;;;;17.80;99.90;;;;;;8325483;28;19920;-67
2021/07/05 05:31:36;;;;;;;;;;;17.60;99.90;;;;;;8329291;28;19913;-66
2021/07/05 05:35:37;;;;;;;;;;;17.50;99.90;;;;;;8354744;28;19915;-66
2021/07/05 05:39:37;;;;;;;;;;;17.40;99.90;;;;;;8333230;28;19913;-65
2021/07/05 05:43:38;;;;;;;;;;;17.30;99.90;;;;;;8311265;28;19909;-65
2021/07/05 05:47:39;;;;;;;;;;;17.30;99.90;;;;;;8328348;28;19972;-66
2021/07/05 05:51:39;;;;;;;;;;;17.60;99.90;;;;;;8328312;28;19921;-67
2021/07/05 05:55:46;;;;;;;17.15;12.52;;;18.10;99.90;;;;;;8326893;28;20408;-64
2021/07/05 05:59:46;;;;;;;;;;;18.80;99.90;;;;;;8327862;28;20383;-65
2021/07/05 06:03:47;;;;;;;;;;;19.40;99.90;;;;;;8323806;28;19909;-65
2021/07/05 06:07:50;;;;;;;37.97;17.50;;;19.50;99.90;;;;;;8307315;28;20416;-66
2021/07/05 06:11:50;;;;;;;;;;;19.20;99.90;;;;;;8310474;28;20204;-65
2021/07/05 06:15:51;;;;;;;21.37;17.23;;;19.10;99.90;;;;;;8327784;28;20168;-66
2021/07/05 06:19:51;;;;;;;;;;;19.00;99.90;;;;;;8327869;28;20028;-66
2021/07/05 06:23:55;;;;;;;;;;;18.90;99.90;;;;;;8310246;28;19905;-66
2021/07/05 06:27:56;;;;;;;;;;;18.80;99.90;;;;;;8305475;28;19917;-65
2021/07/05 06:31:56;;;;;;;;;;;18.70;99.90;;;;;;8298203;28;19951;-65
2021/07/05 06:35:57;;;;;;;;;;;18.80;99.90;;;;;;8355210;28;19905;-66
2021/07/05 06:39:58;;;;;;;;;;;18.90;99.90;;;;;;8339739;28;19909;-62
2021/07/05 06:43:58;;;;;;;;;;;18.80;99.90;;;;;;8326106;28;19909;-63
2021/07/05 06:47:59;;;;;;;;;;;18.80;99.90;;;;;;8331089;28;19981;-63
2021/07/05 06:51:59;;;;;;;;;;;18.90;99.90;;;;;;8324057;28;19917;-62
2021/07/05 06:56:00;;;;;;;;;;;19.20;99.90;;;;;;8318714;28;19971;-62
2021/07/05 07:00:04;;;;;;;;;;;19.50;99.90;;;;;;8317672;28;19924;-62
2021/07/05 07:04:04;;;;;;;30.52;16.33;;;19.50;99.90;;;;;;8317335;28;20411;-61
2021/07/05 07:08:05;;;;;;;;;;;19.60;99.90;;;;;;8325557;28;20047;-62
2021/07/05 07:12:06;;;;;;;;;;;19.70;99.90;;;;;;8314756;28;20050;-62
2021/07/05 07:16:07;;;;;;;;;;;19.70;99.90;;;;;;8344674;28;19915;-62
2021/07/05 07:20:08;;;;;;;;;;;19.60;99.90;;;;;;8328931;28;19915;-62
2021/07/05 07:24:09;;;;;;;;;;;19.70;99.90;;;;;;8320418;28;19908;-62
2021/07/05 07:28:09;;;;;;;;;;;19.50;99.90;;;;;;8311488;28;19924;-61
2021/07/05 07:32:10;;;;;;;;;;;19.40;99.90;;;;;;8296969;28;19913;-62
2021/07/05 07:36:10;;;;;;;;;;;19.40;99.90;;;;;;8327630;28;19917;-61
2021/07/05 07:40:16;;;;;;;;;;;19.50;99.90;;;;;;8324142;28;19916;-61
2021/07/05 07:44:16;;;;;;;;;;;19.70;99.90;;;;;;8320037;28;19913;-62
2021/07/05 07:48:17;;;;;;;;;;;20.30;99.90;;;;;;8323617;28;20019;-62
2021/07/05 07:52:17;;;;;;;;;;;20.50;99.90;;;;;;8309419;28;19967;-62
2021/07/05 07:56:18;;;;;;;;;;;20.80;99.90;;;;;;8308290;28;20019;-62
2021/07/05 08:00:19;;;;;;;;;;;20.80;99.90;;;;;;8311910;28;19909;-62
2021/07/05 08:04:19;;;;;;;;;;;20.70;99.90;;;;;;8319592;28;20004;-62
2021/07/05 08:08:21;;;;;;;;;;;20.80;99.90;;;;;;8323960;28;19964;-62
2021/07/05 08:12:21;;;;;;;;;;;21.00;99.90;;;;;;8306610;28;19932;-63
2021/07/05 08:16:22;;;;;;;;;;;20.90;99.90;;;;;;8323859;28;19928;-62
2021/07/05 08:20:22;;;;;;;;;;;20.60;99.90;;;;;;8322663;28;19916;-62
2021/07/05 08:24:23;;;;;;;;;;;20.50;99.90;;;;;;8322688;28;20004;-62
2021/07/05 08:28:24;;;;;;;;;;;20.20;99.90;;;;;;8324033;28;19913;-62
2021/07/05 08:32:24;;;;;;;;;;;20.00;99.90;;;;;;8303944;28;19975;-61
2021/07/05 08:36:25;;;;;;;;;;;19.90;99.90;;;;;;8323764;28;19909;-62
2021/07/05 08:40:26;;;;;;;;;;;19.90;99.90;;;;;;8317552;28;20371;-62
2021/07/05 08:44:27;;;;;;;;;;;20.00;99.90;;;;;;8316905;28;20470;-62
2021/07/05 08:48:28;;;;;;;;;;;19.80;99.90;;;;;;8316879;28;19990;-62
2021/07/05 08:52:31;;;;;;;;;;;20.00;99.90;;;;;;8301112;28;19905;-61
2021/07/05 08:56:32;;;;;;;;;;;20.10;99.90;;;;;;8312916;28;20434;-62
2021/07/05 09:00:32;;;;;;;;;;;20.20;99.90;;;;;;8297333;28;19915;-62
2021/07/05 09:04:33;;;;;;;;;;;20.60;99.90;;;;;;8319590;28;19927;-62
2021/07/05 09:08:40;;;;;;;;;;;20.40;99.90;;;;;;8328695;28;19916;-62
2021/07/05 09:12:40;;;;;;;;;;;20.10;99.90;;;;;;8329311;28;20438;-62
2021/07/05 09:16:41;;;;;;;;;;;19.90;99.90;;;;;;8329681;28;19905;-62
2021/07/05 09:20:42;;;;;;;;;;;20.00;99.90;;;;;;8329490;28;19944;-62
2021/07/05 09:24:43;;;;;;;;;;;20.40;99.90;;;;;;8329497;28;19912;-62
2021/07/05 09:28:44;;;;;;;;;;;20.60;99.90;;;;;;8329393;28;19916;-63
2021/07/05 09:32:44;;;;;;;;;;;20.80;99.90;;;;;;8330956;28;19995;-62
2021/07/05 09:36:46;;;;;;;;;;;20.70;99.90;;;;;;8333059;28;19915;-62
2021/07/05 09:40:47;;;;;;;;;;;20.90;99.90;;;;;;8328646;28;19988;-62
2021/07/05 09:44:47;;;;;;;;;;;21.10;99.90;;;;;;8328513;28;19908;-62
2021/07/05 09:48:50;;;;;;;;;;;21.10;99.90;;;;;;8302125;28;20000;-62
2021/07/05 09:52:50;;;;;;;;;;;21.10;99.90;;;;;;8307902;28;19913;-62
2021/07/05 09:56:54;;;;;;;;;;;21.40;99.90;;;;;;8328629;28;19948;-62
2021/07/05 10:00:55;;;;;;;;;;;21.50;99.90;;;;;;8328725;28;19909;-62
2021/07/05 10:05:08;;;;;;;;;;;21.40;99.90;;;;;;8346796;28;19958;-62
2021/07/05 10:09:09;;;;;;;;;;;21.40;99.90;;;;;;8335136;28;20371;-62
2021/07/05 10:13:11;;;;;;;;;;;21.50;99.90;;;;;;8327598;28;19915;-61
2021/07/05 10:17:15;;;;;;;;;;;21.30;99.90;;;;;;8321071;28;19973;-62
2021/07/05 10:21:15;;;;;;;;;;;21.00;99.90;;;;;;8326681;28;19916;-61
2021/07/05 10:25:17;;;;;;;;;;;20.70;99.90;;;;;;8327295;28;19913;-62
2021/07/05 10:29:18;;;;;;;;;;;20.70;99.90;;;;;;8327193;28;19964;-61
2021/07/05 10:33:19;;;;;;;;;;;20.90;99.90;;;;;;8331170;28;20347;-63
2021/07/05 10:37:29;;;;;;;;;;;21.00;99.90;;;;;;8327945;28;19909;-62
2021/07/05 10:41:37;;;;;;;;;;;20.90;99.90;;;;;;8360569;28;19908;-62
2021/07/05 10:45:42;;;;;;;;;;;20.90;99.90;;;;;;8337134;28;19912;-63
2021/07/05 10:49:46;;;;;;;;;;;20.90;99.90;;;;;;8326930;28;19921;-62
2021/07/05 10:53:47;;;;;;;;;;;20.90;99.90;;;;;;8327204;28;19905;-62
2021/07/05 10:57:48;;;;;;;;;;;20.20;99.90;;;;;;8326596;28;19908;-62
2021/07/05 11:01:49;;;;;;;;;;;20.00;99.90;;;;;;8326412;28;19963;-62
2021/07/05 11:05:51;;;;;;;;;;;19.70;99.90;;;;;;8353694;28;19916;-62
2021/07/05 11:09:52;;;;;;;;;;;19.70;99.90;;;;;;8335411;28;20061;-62
2021/07/05 11:14:08;;;;;;;;;;;19.70;99.90;;;;;;8326422;28;20016;-62
2021/07/05 11:18:08;;;;;;;;;;;19.80;99.90;;;;;;8325364;28;19912;-62
2021/07/05 11:22:38;;;;;;;18.60;13.10;;;19.50;99.90;;;;;;8324888;28;20945;-62
2021/07/05 11:26:40;;;;;;;;;;;18.10;99.90;;;;;;8302576;28;20034;-62
2021/07/05 11:30:41;;;;;;;;;;;17.70;99.90;;;;;;8325233;28;19927;-61
2021/07/05 11:34:46;;;;;;;;;;;17.80;99.90;;;;;;8326233;28;19916;-62
2021/07/05 11:39:01;;;;;;;;;;;18.30;99.90;;;;;;8325427;28;19995;-63
2021/07/05 11:43:01;;;;;;;;;;;18.90;99.90;;;;;;8325321;28;19909;-62
2021/07/05 11:47:02;;;;;;;;;;;19.00;99.90;;;;;;8319384;28;19913;-63
2021/07/05 11:51:13;;;;;;;;;;;19.20;99.90;;;;;;8324948;28;19920;-63
2021/07/05 11:55:14;;;;;;;;;;;19.50;99.90;;;;;;8324631;28;19912;-63
2021/07/05 11:59:31;;;;;;;;;;;20.10;99.90;;;;;;8324713;28;19916;-62
2021/07/05 12:03:31;;;;;;;;;;;20.50;99.90;;;;;;8325230;28;19917;-63
2021/07/05 12:07:32;;;;;;;;;;;20.60;99.90;;;;;;8324452;28;19909;-62
2021/07/05 12:11:37;;;;;;;;;;;20.60;99.90;;;;;;8324188;28;20390;-62
2021/07/05 12:15:38;;;;;;;;;;;20.70;99.90;;;;;;8324640;28;19909;-63
2021/07/05 12:19:41;;;;;;;;;;;20.70;99.90;;;;;;8324884;28;19916;-63
2021/07/05 12:23:42;;;;;;;;;;;20.50;99.90;;;;;;8324918;28;19909;-62
2021/07/05 12:27:42;;;;;;;;;;;20.50;99.90;;;;;;8326011;28;19974;-62
2021/07/05 12:31:59;;;;;;;;;;;20.40;99.90;;;;;;8330252;28;19916;-64
2021/07/05 12:36:00;;;;;;;;;;;20.20;99.90;;;;;;8330231;28;19963;-64
2021/07/05 12:40:03;;;;;;;;;;;20.10;99.90;;;;;;8322269;28;19917;-63
2021/07/05 12:44:08;;;;;;;;;;;20.10;99.90;;;;;;8315188;28;19909;-63
2021/07/05 12:48:08;;;;;;;;;;;20.30;99.90;;;;;;8327330;28;19917;-63
2021/07/05 12:52:09;;;;;;;;;;;20.60;99.90;;;;;;8330685;28;19913;-63
2021/07/05 12:56:11;;;;;;;;;;;21.00;99.90;;;;;;8319347;28;19919;-63
2021/07/05 13:00:11;;;;;;;;;;;21.00;99.90;;;;;;8307278;28;19956;-61
2021/07/05 13:04:20;;;;;;;;;;;21.40;99.90;;;;;;8332888;28;19967;-63
2021/07/05 13:08:27;;;;;;;;;;;21.50;99.90;;;;;;8327692;28;19970;-62
2021/07/05 13:12:27;;;;;;;;;;;21.80;99.90;;;;;;8313830;28;20342;-63
2021/07/05 13:16:28;;;;;;;;;;;21.90;99.90;;;;;;8323539;28;19955;-63
2021/07/05 13:20:35;;;;;;;;;;;21.50;99.90;;;;;;8298728;28;19916;-64
2021/07/05 13:24:41;;;;;;;;;;;21.20;99.90;;;;;;8331463;28;19936;-64
2021/07/05 13:28:48;;;;;;;;;;;20.90;99.90;;;;;;8329713;28;20379;-64
2021/07/05 13:33:00;;;;;;;;;;;20.50;99.90;;;;;;8331655;28;19987;-62
2021/07/05 13:37:01;;;;;;;;;;;20.10;99.90;;;;;;8343909;28;20401;-64
2021/07/05 13:41:06;;;;;;;;;;;19.50;99.90;;;;;;8329498;28;19909;-63
2021/07/05 13:45:16;;;;;;;;;;;19.10;99.90;;;;;;8328639;28;20355;-64
2021/07/05 13:49:17;;;;;;;;;;;18.80;99.90;;;;;;8308807;28;19913;-63
2021/07/05 13:53:24;;;;;;;;;;;18.70;99.90;;;;;;8296385;28;19957;-63
2021/07/05 13:57:24;;;;;;;;;;;19.00;99.90;;;;;;8322012;28;20395;-63
2021/07/05 14:01:28;;;;;;;;;;;19.40;99.90;;;;;;8326680;28;19927;-63
2021/07/05 14:05:29;;;;;;;;;;;20.10;99.90;;;;;;8329128;28;19947;-63
2021/07/05 14:09:30;;;;;;;;;;;21.90;99.90;;;;;;8326408;28;20283;-64
2021/07/05 14:13:32;;;;;;;;;;;22.90;99.90;;;;;;8324290;28;19913;-63
2021/07/05 14:17:33;;;;;;;;;;;22.70;99.90;;;;;;8307539;28;19913;-64
2021/07/05 14:21:34;;;;;;;;;;;22.20;99.90;;;;;;8324621;28;19921;-64
2021/07/05 14:25:35;;;;;;;;;;;21.70;99.90;;;;;;8325210;28;19913;-63
2021/07/05 14:29:35;;;;;;;;;;;21.30;99.90;;;;;;8311799;28;19909;-63
2021/07/05 14:33:36;;;;;;;;;;;21.30;99.90;;;;;;8316287;28;19913;-64
2021/07/05 14:37:37;;;;;;;;;;;21.30;99.90;;;;;;8324643;28;19920;-63
2021/07/05 14:41:37;;;;;;;;;;;21.70;99.90;;;;;;8326085;28;19909;-64
2021/07/05 14:45:38;;;;;;;;;;;21.80;99.90;;;;;;8308613;28;20363;-64
2021/07/05 14:49:38;;;;;;;;;;;22.00;99.90;;;;;;8324639;28;21189;-64
2021/07/05 14:53:39;;;;;;;;;;;22.30;99.90;;;;;;8319518;28;19909;-64
2021/07/05 14:57:40;;;;;;;;;;;22.80;99.90;;;;;;8325420;28;19956;-64
2021/07/05 15:01:40;;;;;;;;;;;23.90;99.90;;;;;;8326514;28;19917;-64
2021/07/05 15:05:41;;;;;;;;;;;24.90;99.90;;;;;;8334171;28;19912;-63
2021/07/05 15:09:41;;;;;;;;;;;24.90;99.90;;;;;;8313431;28;19912;-63
2021/07/05 15:13:42;;;;;;;;;;;24.20;99.90;;;;;;8303985;28;20466;-65
2021/07/05 15:17:42;;;;;;;;;;;24.10;99.90;;;;;;8319041;28;19949;-64
2021/07/05 15:21:43;;;;;;;;;;;23.70;99.90;;;;;;8308490;28;19909;-64
2021/07/05 15:25:44;;;;;;;;;;;23.40;99.90;;;;;;8322793;28;19905;-64
2021/07/05 15:29:45;;;;;;;;;;;23.20;99.90;;;;;;8304344;28;20302;-63
2021/07/05 15:33:50;;;;;;;;;;;23.00;99.90;;;;;;8315216;28;19909;-63
2021/07/05 15:37:51;;;;;;;;;;;22.90;99.90;;;;;;8303091;28;19951;-63
2021/07/05 15:41:52;;;;;;;;;;;23.20;99.90;;;;;;8322473;28;19940;-64
2021/07/05 15:45:53;;;;;;;;;;;23.50;99.90;;;;;;8323704;28;20421;-63
2021/07/05 15:49:54;;;;;;;;;;;23.70;99.90;;;;;;8324745;28;19967;-64
2021/07/05 15:53:55;;;;;;;;;;;24.30;99.90;;;;;;8324846;28;20391;-63
2021/07/05 15:57:55;;;;;;;;;;;24.90;99.90;;;;;;8324533;28;19905;-63
2021/07/05 16:01:56;;;;;;;;;;;25.00;99.90;;;;;;8327061;28;19909;-63
2021/07/05 16:05:57;;;;;;;;;;;24.60;99.90;;;;;;8322710;28;19971;-63
2021/07/05 16:09:57;;;;;;;;;;;24.00;99.90;;;;;;8293844;28;20004;-63
2021/07/05 16:13:58;;;;;;;;;;;23.40;99.90;;;;;;8306235;28;19932;-64
2021/07/05 16:17:58;;;;;;;;;;;23.40;99.90;;;;;;8317773;28;19975;-64
2021/07/05 16:21:59;;;;;;;;;;;24.10;99.90;;;;;;8318657;28;19921;-63
2021/07/05 16:25:59;;;;;;;;;;;26.50;99.90;;;;;;8313124;28;19964;-65
2021/07/05 16:30:00;;;;;;;;;;;26.80;99.90;;;;;;8314177;28;19920;-63
2021/07/05 16:34:00;;;;;;;;;;;26.20;99.90;;;;;;8306631;28;19913;-70
2021/07/05 16:38:01;;;;;;;;;;;25.70;99.90;;;;;;8299749;28;19910;-71
2021/07/05 16:42:02;;;;;;;;;;;26.30;99.90;;;;;;8315047;28;19913;-74
2021/07/05 16:46:02;;;;;;;;;;;26.00;99.90;;;;;;8327642;28;19964;-70
2021/07/05 16:50:03;;;;;;;;;;;26.40;99.90;;;;;;8319601;28;19920;-71
2021/07/05 16:54:04;;;;;;;;;;;27.50;99.90;;;;;;8297983;28;19999;-71
2021/07/05 16:58:04;;;;;;;;;;;28.60;99.90;;;;;;8321403;28;19909;-73
2021/07/05 17:02:10;;;;;;;;;;;30.40;99.90;;;;;;8305210;28;19923;-63
2021/07/05 17:06:11;;;;;;;;;;;32.00;96.30;;;;;;8319274;28;19913;-63
2021/07/05 17:10:12;;;;;;;;;;;32.70;91.80;;;;;;8320727;28;19905;-63
2021/07/05 17:14:12;;;;;;;;;;;32.00;89.70;;;;;;8323422;28;19905;-63
2021/07/05 17:18:13;;;;;;;;;;;30.80;90.50;;;;;;8316800;28;20527;-63
2021/07/05 17:22:14;;;;;;;;;;;30.30;91.60;;;;;;8305813;28;19909;-63
2021/07/05 17:26:14;;;;;;;;;;;31.10;90.20;;;;;;8305244;28;19920;-62
2021/07/05 17:30:15;;;;;;;;;;;29.30;91.80;;;;;;8317396;28;19909;-62
2021/07/05 17:34:16;;;;;;;;;;;27.00;96.30;;;;;;8319543;28;19927;-63
2021/07/05 17:38:17;;;;;;;;;;;25.20;99.90;;;;;;8306574;28;20339;-62
2021/07/05 17:42:18;;;;;;;;;;;24.20;99.90;;;;;;8317019;28;20075;-62
2021/07/05 17:46:19;;;;;;;;;;;23.70;99.90;;;;;;8317894;28;19963;-66
2021/07/05 17:50:19;;;;;;;;;;;23.70;99.90;;;;;;8324209;28;19917;-66
2021/07/05 17:54:20;;;;;;;;;;;23.50;99.90;;;;;;8323559;28;20068;-67
2021/07/05 17:58:20;;;;;;;;;;;22.90;99.90;;;;;;8323722;28;19913;-66
2021/07/05 18:02:21;;;;;;;;;;;22.50;99.90;;;;;;8324674;28;19909;-67
2021/07/05 18:06:21;;;;;;;;;;;22.60;99.90;;;;;;8328465;28;19913;-66
2021/07/05 18:10:24;;;;;;;;;;;22.50;99.90;;;;;;8323835;28;20434;-67
2021/07/05 18:14:24;;;;;;;;;;;22.30;99.90;;;;;;8294112;28;20272;-66
2021/07/05 18:18:25;;;;;;;;;;;21.90;99.90;;;;;;8318264;28;19913;-66
2021/07/05 18:22:25;;;;;;;;;;;21.60;99.90;;;;;;8322159;28;19912;-66
2021/07/05 18:26:26;;;;;;;;;;;21.50;99.90;;;;;;8322157;28;20043;-67
2021/07/05 18:30:27;;;;;;;;;;;21.20;99.90;;;;;;8322469;28;19917;-66
2021/07/05 18:34:28;;;;;;;;;;;20.80;99.90;;;;;;8324994;28;20013;-66
2021/07/05 18:38:29;;;;;;;;;;;20.80;99.90;;;;;;8312404;28;19989;-66
2021/07/05 18:42:30;;;;;;;;;;;20.80;99.90;;;;;;8314698;28;19909;-66
2021/07/05 18:46:30;;;;;;;;;;;20.50;99.90;;;;;;8315520;28;19913;-66
2021/07/05 18:50:31;;;;;;;;;;;20.40;99.90;;;;;;8313106;28;19916;-66
2021/07/05 18:54:31;;;;;;;;;;;20.30;99.90;;;;;;8315499;28;19916;-66
2021/07/05 18:58:32;;;;;;;;;;;20.10;99.90;;;;;;8314526;28;20425;-67
2021/07/05 19:02:33;;;;;;;;;;;19.70;99.90;;;;;;8313280;28;20492;-66
2021/07/05 19:06:33;;;;;;;;;;;19.60;99.90;;;;;;8312745;28;19923;-66
2021/07/05 19:10:34;;;;;;;;;;;19.30;99.90;;;;;;8316016;28;19913;-65
2021/07/05 19:14:35;;;;;;;;;;;19.30;99.90;;;;;;8321011;28;19919;-66
2021/07/05 19:18:35;;;;;;;;;;;19.00;99.90;;;;;;8319070;28;19913;-67
2021/07/05 19:22:36;;;;;;;;;;;18.70;99.90;;;;;;8295789;28;19932;-67
2021/07/05 19:26:36;;;;;;;;;;;18.40;99.90;;;;;;8309277;28;19917;-67
2021/07/05 19:30:37;;;;;;;;;;;18.10;99.90;;;;;;8312230;28;19920;-67
2021/07/05 19:34:37;;;;;;;;;;;17.90;99.90;;;;;;8316312;28;19914;-67
2021/07/05 19:38:38;;;;;;;;;;;17.70;99.90;;;;;;8300592;28;19909;-67
2021/07/05 19:42:38;;;;;;;;;;;17.60;99.90;;;;;;8321016;28;19909;-67
2021/07/05 19:46:39;;;;;;;;;;;17.80;99.90;;;;;;8321067;28;19913;-67
2021/07/05 19:50:42;;;;;;;;;;;17.80;99.90;;;;;;8320336;28;19921;-67
2021/07/05 19:54:42;;;;;;;;;;;17.60;99.90;;;;;;8319475;28;19909;-67
2021/07/05 19:58:43;;;;;;;;;;;17.90;99.90;;;;;;8321264;28;20008;-68
2021/07/05 20:02:44;;;;;;;;;;;17.70;99.90;;;;;;8321912;28;19913;-67
2021/07/05 20:06:44;;;;;;;;;;;17.10;99.90;;;;;;8325752;28;19944;-67
2021/07/05 20:10:45;;;;;;;;;;;17.30;99.90;;;;;;8322168;28;19917;-67
2021/07/05 20:14:45;;;;;;;;;;;17.20;99.90;;;;;;8305596;28;19909;-67
2021/07/05 20:18:46;;;;;;;;;;;16.80;99.90;;;;;;8311546;28;20287;-68
2021/07/05 20:22:47;;;;;;;;;;;16.50;99.90;;;;;;8306522;28;19909;-68
2021/07/05 20:26:47;;;;;;;;;;;16.40;99.90;;;;;;8307576;28;19913;-67
2021/07/05 20:30:48;;;;;;;;;;;16.60;99.90;;;;;;8311095;28;19943;-67
2021/07/05 20:34:49;;;;;;;10.10;9.30;;;16.10;99.90;;;;;;8319350;28;20412;-66
2021/07/05 20:38:49;;;;;;;;;;;16.40;99.90;;;;;;8322539;28;20560;-68
2021/07/05 20:42:50;;;;;;;;;;;16.00;99.90;;;;;;8303698;28;19912;-67
2021/07/05 20:46:50;;;;;;;;;;;15.70;99.90;;;;;;8306129;28;19920;-67
2021/07/05 20:50:51;;;;;;;;;;;15.90;99.90;;;;;;8311494;28;19916;-67
2021/07/05 20:54:52;;;;;;;;;;;15.60;99.90;;;;;;8331184;28;19905;-67
2021/07/05 20:58:52;;;;;;;;;;;15.50;99.90;;;;;;8312771;28;19991;-67
2021/07/05 21:02:53;;;;;;;;;;;15.70;99.90;;;;;;8333858;28;19984;-67
2021/07/05 21:06:54;;;;;;;;;;;15.40;99.90;;;;;;8363334;28;19909;-67
2021/07/05 21:10:54;;;;;;;;;;;15.50;99.90;;;;;;8363462;28;19958;-67
2021/07/05 21:14:55;;;;;;;;;;;15.20;99.90;;;;;;8363499;28;19905;-67
2021/07/05 21:18:55;;;;;;;;;;;15.10;99.90;;;;;;8363282;28;19943;-67
2021/07/05 21:22:55;;;;;;;;;;;15.10;99.90;;;;;;8355910;28;19911;-67
2021/07/05 21:26:56;;;;;;;;;;;15.40;99.90;;;;;;8329845;28;19979;-67
2021/07/05 21:30:57;;;;;;;;;;;15.10;99.90;;;;;;8330114;28;19909;-67
2021/07/05 21:34:57;;;;;;;;;;;15.00;99.90;;;;;;8332710;28;19951;-67
2021/07/05 21:38:57;;;;;;;;;;;15.10;99.90;;;;;;8362405;28;19905;-67
2021/07/05 21:42:58;;;;;;;;;;;15.10;99.90;;;;;;8364406;22;19922;-66
2021/07/05 21:46:58;;;;;;;;;;;15.20;99.90;;;;;;8224232;28;19979;-66
2021/07/05 21:50:59;;;;;;;;;;;14.90;99.90;;;;;;8226882;28;19963;-65
2021/07/05 21:54:59;;;;;;;;;;;14.80;99.90;;;;;;8205006;28;20398;-65
2021/07/05 21:59:00;;;;;;;;;;;14.70;99.90;;;;;;8194274;29;19917;-66
2021/07/05 22:03:01;;;;;;;;;;;14.70;99.90;;;;;;8198718;28;19917;-65
2021/07/05 22:07:01;;;;;;;;;;;14.70;99.90;;;;;;8226036;28;19957;-66
2021/07/05 22:11:02;;;;;;;;;;;14.50;99.90;;;;;;8226706;28;19971;-65
2021/07/05 22:15:04;;;;;;;;;;;14.50;99.90;;;;;;8226236;28;19910;-65
2021/07/05 22:19:04;;;;;;;;;;;14.80;99.90;;;;;;8226049;28;20399;-65
2021/07/05 22:23:06;;;;;;;;;;;14.90;99.90;;;;;;8217438;28;19913;-65
2021/07/05 22:27:06;;;;;;;;;;;14.50;99.90;;;;;;8193576;29;19910;-65
2021/07/05 22:31:07;;;;;;;;;;;14.20;99.90;;;;;;8193714;28;19907;-65
2021/07/05 22:35:08;;;;;;;;;;;14.30;99.90;;;;;;8214979;28;19913;-65
2021/07/05 22:39:08;;;;;;;;;;;14.50;99.90;;;;;;8225390;28;19952;-65
2021/07/05 22:43:09;;;;;;;;;;;14.30;99.90;;;;;;8225375;28;20001;-66
2021/07/05 22:47:09;;;;;;;;;;;14.00;99.90;;;;;;8225237;28;20287;-65
2021/07/05 22:51:10;;;;;;;;;;;14.10;99.90;;;;;;8225303;28;19997;-65
2021/07/05 22:55:11;;;;;;;;;;;14.10;99.90;;;;;;8200055;28;19917;-65
2021/07/05 22:59:11;;;;;;;;;;;13.90;99.90;;;;;;8192933;28;19961;-66
2021/07/05 23:03:12;;;;;;;;;;;14.00;99.90;;;;;;8181951;28;20333;-66
2021/07/05 23:07:12;;;;;;;;;;;14.20;99.90;;;;;;8224396;28;19911;-65
2021/07/05 23:11:13;;;;;;;;;;;14.20;99.90;;;;;;8207129;28;20261;-65
2021/07/05 23:15:14;;;;;;;;;;;13.90;99.90;;;;;;8225026;28;19906;-65
2021/07/05 23:19:14;;;;;;;;;;;13.80;99.90;;;;;;8224746;28;19906;-65